Latest Weather Observations for Wiluna Airport

IDW60801

Issued at 10:33 am WST Tuesday 22 September 2020 (issued every 10 minutes, with the page automatically refreshed every 10 minutes)

About weather observations | Map of weather stations | Latest weather observations for WA | Other Formats
Station Details ID: 013044 Name: WILUNA AERO Lat: -26.63 Lon: 120.22 Height: 502.4 m
Data from the previous 72 hours. | See also: Recent months at Wiluna Airport
Date/Time
WST
Temp
°C
App
Temp
°C
Dew
Point
°C
Rel
Hum
%
Delta-T
°C
Wind Press
QNH
hPa
Press
MSL
hPa
Rain since
9am
mm
Dir  Spd
km/h
Gust
km/h
Spd
kts
Gust
kts
22/10:30am 19.5 14.5 -1.0 25 9.0 ESE 15 26 8 14 1023.0 1021.5 0.0
22/10:00am 18.0 12.0 -1.3 27 8.4 SE 20 30 11 16 1023.2 1021.7 0.0
22/09:30am 18.1 12.3 -0.2 29 8.1 SE 20 28 11 15 1023.5 1022.0 0.0
22/09:00am 17.0 11.4 -0.2 31 7.5 SE 19 28 10 15 1023.4 1021.9 0.0
22/08:30am 15.3 9.5 -0.4 34 6.8 SE 20 26 11 14 1023.4 1021.9 0.0
22/08:00am 13.2 6.9 -0.8 38 5.9 SE 22 28 12 15 1023.2 1021.7 0.0
22/07:30am 12.6 7.2 -1.0 39 5.7 SE 17 24 9 13 1022.9 1021.4 0.0
22/07:00am 10.7 6.4 -1.7 42 5.0 SSE 11 15 6 8 1022.2 1020.7 0.0
22/06:30am 8.7 4.6 -2.9 44 4.4 S 9 11 5 6 1022.0 1020.5 0.0
22/06:00am 8.0 4.3 -3.2 45 4.2 S 7 9 4 5 1021.7 1020.2 0.0
22/05:30am 8.2 4.1 -3.0 45 4.2 S 9 9 5 5 1021.5 1020.0 0.0
22/05:00am 8.4 4.7 -3.1 44 4.3 S 7 9 4 5 1021.3 1019.8 0.0
22/04:30am 5.8 1.6 -7.4 38 4.3 S 7 7 4 4 1021.0 1019.5 0.0
22/04:00am 6.8 2.7 -6.8 37 4.6 S 7 9 4 5 1021.0 1019.5 0.0
22/03:30am 6.7 2.8 -6.9 37 4.6 S 6 9 3 5 1020.7 1019.2 0.0
22/03:00am 7.2 4.4 -7.2 35 4.8 CALM 0 0 0 0 1020.7 1019.2 0.0
22/02:30am 7.6 4.4 -7.2 34 5.0 S 2 6 1 3 1020.7 1019.2 0.0
22/02:00am 8.5 5.8 -6.1 35 5.1 CALM 0 0 0 0 1020.8 1019.3 0.0
22/01:30am 11.1 7.3 -3.4 36 5.6 S 7 9 4 5 1020.7 1019.2 0.0
22/01:00am 11.4 7.6 -3.9 34 5.9 S 7 11 4 6 1020.5 1019.0 0.0
22/12:30am 10.9 7.1 -3.6 36 5.6 S 7 9 4 5 1020.7 1019.2 0.0
22/12:00am 9.6 6.9 -5.9 33 5.5 CALM 0 0 0 0 1020.5 1019.0 0.0
 
Date/Time
WST
Temp
°C
App
Temp
°C
Dew
Point
°C
Rel
Hum
%
Delta-T
°C
Wind Press
QNH
hPa
Press
MSL
hPa
Rain since
9am
mm
Dir  Spd
km/h
Gust
km/h
Spd
kts
Gust
kts
21/11:30pm 10.0 6.5 -5.9 32 5.7 S 4 7 2 4 1020.5 1019.0 0.0
21/11:00pm 10.5 7.8 -5.9 31 5.9 CALM 0 0 0 0 1020.5 1019.0 0.0
21/10:30pm 11.2 8.1 -6.6 28 6.4 S 2 6 1 3 1020.4 1018.9 0.0
21/10:00pm 13.6 9.7 -5.0 27 7.1 S 7 9 4 5 1020.7 1019.2 0.0
21/09:30pm 14.5 9.8 -4.7 26 7.5 SSW 11 13 6 7 1020.7 1019.2 0.0
21/09:00pm 15.3 10.6 -5.1 24 7.9 SSW 11 13 6 7 1020.4 1018.9 0.0
21/08:30pm 15.8 11.1 -5.3 23 8.3 SSW 11 11 6 6 1020.3 1018.8 0.0
21/08:00pm 16.0 11.6 -5.7 22 8.4 SSW 9 11 5 6 1020.1 1018.6 0.0
21/07:30pm 17.6 13.3 -5.0 21 9.1 SSW 9 11 5 6 1019.9 1018.4 0.0
21/07:00pm 18.5 13.8 -5.5 19 9.6 SSW 11 13 6 7 1019.5 1018.0 0.0
21/06:30pm 19.2 13.7 -5.7 18 10.0 SSW 15 17 8 9 1019.2 1017.7 0.0
21/06:00pm 19.8 13.9 -5.2 18 10.2 S 17 22 9 12 1019.1 1017.6 0.0
21/05:30pm 20.3 14.4 -5.5 17 10.5 SSW 17 24 9 13 1018.9 1017.4 0.0
21/05:00pm 20.9 14.6 -5.8 16 10.9 SSW 19 24 10 13 1018.6 1017.0 0.0
21/04:30pm 20.8 15.7 -5.1 17 10.7 SSW 13 20 7 11 1018.3 1016.8 0.0
21/04:00pm 20.8 15.0 -4.4 18 10.5 SW 17 28 9 15 1018.3 1016.8 0.0
21/03:30pm 20.7 14.9 -4.4 18 10.5 SW 17 24 9 13 1018.0 1016.5 0.0
21/03:00pm 20.6 15.8 -2.5 21 10.0 SSW 13 20 7 11 1018.2 1016.7 0.0
21/02:30pm 20.9 15.4 -2.2 21 10.1 SSW 17 28 9 15 1018.2 1016.7 0.0
21/02:00pm 19.8 14.5 -3.8 20 9.9 SSW 15 24 8 13 1018.7 1017.1 0.0
21/01:30pm 19.4 14.4 -1.1 25 9.1 SSW 15 20 8 11 1019.0 1017.5 0.0
21/01:00pm 18.9 14.4 -0.5 27 8.6 SSE 13 24 7 13 1019.3 1017.8 0.0
21/12:30pm 18.1 12.4 -0.7 28 8.3 S 19 33 10 18 1019.7 1018.2 0.0
21/12:00pm 17.6 12.4 -0.2 30 7.9 S 17 32 9 17 1020.2 1018.7 0.0
21/11:30am 17.1 12.0 0.7 33 7.4 SSW 17 26 9 14 1020.7 1019.2 0.0
21/11:00am 16.0 10.9 1.0 36 6.7 SSW 17 26 9 14 1021.2 1019.7 0.0
21/10:30am 15.9 11.6 1.2 37 6.6 SSW 13 28 7 15 1021.4 1019.9 0.0
21/10:00am 14.9 10.0 2.1 42 5.8 SSW 17 26 9 14 1021.8 1020.3 0.0
21/09:30am 14.1 9.6 2.4 45 5.3 SSW 15 20 8 11 1022.0 1020.5 0.0
21/09:00am 13.5 8.1 2.4 47 5.0 SSW 20 32 11 17 1022.1 1020.6 0.0
21/08:30am 12.7 7.5 2.6 50 4.6 S 19 32 10 17 1022.1 1020.6 0.0
21/08:00am 11.5 5.1 3.0 56 3.8 S 26 35 14 19 1021.9 1020.4 0.0
21/07:30am 11.0 5.3 3.1 58 3.5 SSW 22 30 12 16 1021.6 1020.1 0.0
21/07:00am 10.0 4.9 2.8 61 3.2 SSW 19 24 10 13 1021.2 1019.7 0.0
21/06:30am 9.2 5.1 2.3 62 3.0 SSW 13 17 7 9 1020.8 1019.3 0.0
21/06:00am 8.4 5.0 1.8 63 2.8 SSW 9 11 5 6 1020.4 1018.9 0.0
21/05:30am 8.9 5.1 1.6 60 3.1 SSW 11 15 6 8 1020.2 1018.7 0.0
21/05:00am 9.4 5.1 1.3 57 3.4 SSW 13 19 7 10 1019.9 1018.4 0.0
21/04:30am 9.9 4.8 1.0 54 3.8 SSW 17 20 9 11 1019.8 1018.3 0.0
21/04:00am 10.4 4.8 1.0 52 4.0 SSW 20 30 11 16 1019.4 1017.9 0.0
21/03:30am 10.3 5.8 -0.5 47 4.4 SW 13 17 7 9 1019.2 1017.7 0.0
21/03:00am 10.2 6.0 -1.2 45 4.6 SW 11 17 6 9 1019.1 1017.6 0.0
21/02:30am 10.8 6.2 -1.3 43 4.9 SW 13 15 7 8 1019.1 1017.6 0.0
21/02:00am 11.2 6.9 -1.5 41 5.1 SW 11 13 6 7 1018.9 1017.4 0.0
21/01:30am 12.1 7.8 -1.4 39 5.5 SW 11 15 6 8 1018.7 1017.1 0.0
21/01:00am 12.9 7.9 -1.4 37 5.9 SW 15 19 8 10 1019.0 1017.5 0.0
21/12:30am 12.3 7.6 -1.6 38 5.7 WSW 13 17 7 9 1019.0 1017.5 0.0
21/12:00am 12.3 7.9 -2.3 36 5.9 WSW 11 13 6 7 1019.1 1017.6 0.0
 
Date/Time
WST
Temp
°C
App
Temp
°C
Dew
Point
°C
Rel
Hum
%
Delta-T
°C
Wind Press
QNH
hPa
Press
MSL
hPa
Rain since
9am
mm
Dir  Spd
km/h
Gust
km/h
Spd
kts
Gust
kts
20/11:30pm 12.4 7.9 -3.0 34 6.1 WSW 11 13 6 7 1019.0 1017.5 0.0
20/11:00pm 13.0 8.5 -2.9 33 6.3 WSW 11 13 6 7 1018.9 1017.4 0.0
20/10:30pm 13.9 9.1 -2.9 31 6.8 WSW 13 19 7 10 1019.1 1017.6 0.0
20/10:00pm 14.4 9.1 -3.4 29 7.1 WSW 15 20 8 11 1019.0 1017.5 0.0
20/09:30pm 13.8 9.1 -4.8 27 7.2 WSW 11 13 6 7 1019.1 1017.6 0.0
20/09:00pm 14.5 9.8 -4.7 26 7.5 WSW 11 13 6 7 1019.0 1017.5 0.0
20/08:30pm 15.4 11.1 -4.5 25 7.9 SW 9 11 5 6 1018.9 1017.4 0.0
20/08:00pm 16.6 11.9 -4.6 23 8.5 SW 11 15 6 8 1018.6 1017.0 0.0
20/07:30pm 17.3 11.8 -5.2 21 9.0 SW 15 22 8 12 1018.2 1016.7 0.0
20/07:00pm 17.7 12.5 -6.2 19 9.3 SW 13 19 7 10 1017.7 1016.2 0.0
20/06:30pm 18.3 12.3 -6.4 18 9.7 WSW 17 24 9 13 1017.3 1015.8 0.0
20/06:00pm 18.9 12.3 -6.7 17 10.0 WSW 20 30 11 16 1016.9 1015.3 0.0
20/05:30pm 19.7 13.2 -6.0 17 10.3 SW 20 26 11 14 1016.6 1015.0 0.0
20/05:00pm 20.2 12.5 -6.4 16 10.6 SW 26 41 14 22 1016.3 1014.8 0.0
20/04:30pm 20.7 12.6 -6.8 15 11.0 WSW 28 35 15 19 1016.1 1014.6 0.0
20/04:00pm 20.6 12.1 -6.9 15 10.9 SW 30 41 16 22 1015.8 1014.3 0.0
20/03:30pm 21.2 13.6 -5.6 16 11.0 WSW 26 37 14 20 1015.9 1014.4 0.0
20/03:00pm 20.2 12.1 -6.4 16 10.6 WSW 28 43 15 23 1015.8 1014.3 0.0
20/02:30pm 21.3 14.1 -5.5 16 11.0 WSW 24 32 13 17 1015.8 1014.3 0.0
20/02:00pm 20.0 12.7 -5.8 17 10.4 WSW 24 35 13 19 1016.1 1014.6 0.0
20/01:30pm 19.8 12.7 -4.5 19 10.1 WSW 24 37 13 20 1016.5 1014.9 0.0
20/01:00pm 19.8 12.8 -3.1 21 9.7 WSW 24 43 13 23 1016.7 1015.1 0.0
20/12:30pm 18.8 11.5 -2.7 23 9.1 WSW 26 39 14 21 1017.1 1015.5 0.0
20/12:00pm 18.4 11.5 -2.5 24 8.9 WSW 24 33 13 18 1017.5 1016.0 0.0
20/11:30am 16.7 10.3 -1.4 29 7.8 SW 22 35 12 19 1017.9 1016.4 0.0
20/11:00am 17.0 9.9 -1.1 29 7.8 SSW 26 35 14 19 1018.3 1016.8 0.0
20/10:30am 15.3 8.2 -1.3 32 7.0 WSW 26 39 14 21 1018.7 1017.1 0.0
20/10:00am 15.1 8.5 -0.2 35 6.6 SW 24 37 13 20 1018.9 1017.4 0.0
20/09:30am 14.1 7.5 -0.4 37 6.2 SW 24 33 13 18 1019.1 1017.6 0.0
20/09:00am 13.1 6.2 0.2 41 5.5 SW 26 35 14 19 1019.2 1017.7 0.0
20/08:30am 12.6 6.6 1.3 46 4.9 SW 22 32 12 17 1019.2 1017.7 0.0
20/08:00am 12.0 5.3 1.3 48 4.6 SW 26 35 14 19 1019.2 1017.7 0.0
20/07:30am 11.3 4.7 1.8 52 4.2 SW 26 39 14 21 1018.8 1017.2 0.0
20/07:00am 10.7 4.4 1.8 54 3.9 SW 24 35 13 19 1018.0 1016.5 0.0
20/06:30am 10.4 4.9 2.0 56 3.7 SW 20 32 11 17 1017.5 1016.0 0.0
20/06:00am 10.2 5.3 2.3 58 3.5 SW 17 20 9 11 1017.1 1015.5 0.0
20/05:30am 10.4 5.2 2.3 57 3.6 SW 19 26 10 14 1016.7 1015.1 0.0
20/05:00am 10.6 6.4 1.9 55 3.8 SW 13 22 7 12 1016.1 1014.6 0.0
20/04:30am 11.2 6.3 1.7 52 4.1 WSW 17 24 9 13 1015.7 1014.2 0.0
20/04:00am 11.6 6.1 1.8 51 4.3 WSW 20 39 11 21 1015.5 1014.0 0.0
20/03:30am 12.0 6.5 1.6 49 4.6 SW 20 28 11 15 1015.1 1013.5 0.0
20/03:00am 12.5 6.2 1.5 47 4.8 SW 24 35 13 19 1015.0 1013.4 0.0
20/02:30am 13.0 6.8 2.3 48 4.8 WSW 24 33 13 18 1014.9 1013.3 0.0
20/02:00am 13.6 7.8 2.2 46 5.1 WSW 22 32 12 17 1014.7 1013.1 0.0
20/01:30am 14.2 9.0 3.4 48 5.0 SW 20 32 11 17 1014.7 1013.1 0.0
20/01:00am 15.0 9.5 4.1 48 5.2 WSW 22 32 12 17 1014.4 1012.8 0.0
20/12:30am 15.7 9.5 4.4 47 5.4 SW 26 41 14 22 1014.5 1012.9 0.0
20/12:00am 17.2 12.6 6.4 49 5.5 WSW 20 35 11 19 1014.0 1012.5 0.0
 
Date/Time
WST
Temp
°C
App
Temp
°C
Dew
Point
°C
Rel
Hum
%
Delta-T
°C
Wind Press
QNH
hPa
Press
MSL
hPa
Rain since
9am
mm
Dir  Spd
km/h
Gust
km/h
Spd
kts
Gust
kts
19/11:30pm 17.7 11.7 6.9 49 5.5 WSW 28 44 15 24 1013.8 1012.3 0.0
19/11:00pm 18.2 14.1 8.7 54 5.0 SW 20 30 11 16 1013.5 1011.9 0.0
19/10:30pm 18.9 12.6 9.1 53 5.3 WSW 32 43 17 23 1013.3 1011.7 0.0
19/10:00pm 19.9 14.8 7.6 45 6.5 WSW 24 33 13 18 1013.2 1011.6 0.0
19/09:30pm 20.7 16.9 3.9 33 8.3 WNW 13 17 7 9 1012.5 1010.9 0.0
19/09:00pm 21.2 16.9 3.4 31 8.7 WNW 15 19 8 10 1012.5 1010.9 0.0
19/08:30pm 21.8 17.1 3.0 29 9.2 WNW 17 20 9 11 1012.3 1010.7 0.0
19/08:00pm 22.3 17.2 2.9 28 9.5 WNW 19 24 10 13 1011.8 1010.2 0.0
19/07:30pm 22.7 17.5 2.2 26 9.9 WNW 19 24 10 13 1011.3 1009.7 0.0
19/07:00pm 23.2 17.7 0.3 22 10.7 WNW 19 28 10 15 1010.9 1009.3 0.0
19/06:30pm 23.7 17.1 -0.6 20 11.2 W 24 32 13 17 1010.5 1008.9 0.0
19/06:00pm 24.2 17.0 -4.9 14 12.5 W 24 33 13 18 1010.2 1008.6 0.0
19/05:30pm 25.1 16.0 -7.4 11 13.4 W 33 43 18 23 1009.8 1008.2 0.0
19/05:00pm 26.2 16.7 -7.8 10 14.1 W 35 48 19 26 1009.4 1007.8 0.0
19/04:30pm 26.7 17.6 -7.4 10 14.3 W 33 46 18 25 1009.1 1007.5 0.0
19/04:00pm 27.5 18.3 -8.2 9 14.9 W 33 46 18 25 1008.8 1007.2 0.0
19/03:30pm 28.0 18.9 -7.8 9 15.0 W 33 46 18 25 1008.8 1007.2 0.0
19/03:00pm 27.7 18.7 -8.0 9 14.9 W 32 44 17 24 1008.6 1007.0 0.0
19/02:46pm 28.3 18.8 -7.6 9 15.2 WNW 35 46 19 25 1008.6 1007.0 0.0
19/02:41pm 28.1 18.6 -7.7 9 15.1 WNW 35 52 19 28 1008.6 1007.0 0.0
19/02:30pm 27.8 18.3 -7.9 9 14.9 W 35 89 19 48 1008.8 1007.2 0.0
19/02:22pm 29.1 20.2 -7.0 9 15.5 W 32 89 17 48 1008.2 1006.5 0.0
19/02:00pm 27.9 18.9 -7.9 9 15.0 WNW 32 44 17 24 1008.7 1007.1 0.0
19/01:54pm 29.1 20.1 -8.5 8 15.8 W 32 44 17 24 1008.8 1007.2 0.0
19/01:30pm 28.3 18.3 -9.1 8 15.4 NW 37 54 20 29 1008.9 1007.3 0.0
19/01:01pm 28.2 19.1 -9.1 8 15.3 WNW 32 50 17 27 1009.1 1007.5 0.0
19/01:00pm 27.7 19.0 -9.5 8 15.1 WNW 30 43 16 23 1009.1 1007.5 0.0
19/12:54pm 28.0 19.4 -7.8 9 15.0 WNW 30 48 16 26 1009.1 1007.5 0.0
19/12:30pm 29.0 19.8 -8.5 8 15.7 WNW 33 50 18 27 1009.2 1007.6 0.0
19/12:18pm 28.7 19.5 -8.8 8 15.6 WNW 33 50 18 27 1009.4 1007.8 0.0
19/12:11pm 28.4 19.5 -7.5 9 15.2 WNW 32 43 17 23 1009.4 1007.8 0.0
19/12:00pm 28.0 18.5 -7.8 9 15.1 WNW 35 50 19 27 1009.5 1007.9 0.0
19/11:30am 26.9 17.0 -7.2 10 14.3 NW 37 54 20 29 1009.9 1008.3 0.0
19/11:23am 27.7 18.3 -6.6 10 14.7 NW 35 54 19 29 1010.1 1008.4 0.0
19/11:00am 27.0 18.0 -8.5 9 14.6 WNW 32 46 17 25 1010.3 1008.7 0.0
19/10:35am 26.7 17.5 -8.8 9 14.5 WNW 33 54 18 29 1010.5 1008.9 0.0

Other formats

Comma delimited format used in spreadsheet applications
http://www.bom.gov.au/fwo/IDW60801/IDW60801.95439.axf

JavaScript Object Notation format (JSON) in row-major order
http://www.bom.gov.au/fwo/IDW60801/IDW60801.95439.json

Data quality

Most of these data are generated automatically and are frequently updated. Quality checks on data are not normally performed. It is possible for incorrect values to appear. Refer to information at About Latest Weather Observations and please check the disclaimer before using these data.